createdAt,value
2018-10-21T00:00:02.860Z,5.8
2018-10-21T00:05:02.370Z,5.5
2018-10-21T00:10:03.087Z,5.8
2018-10-21T00:15:02.738Z,5.9
2018-10-21T00:20:03.126Z,6.0
2018-10-21T00:25:02.766Z,6.4
2018-10-21T00:30:02.357Z,6.5
2018-10-21T00:35:02.977Z,6.6
2018-10-21T00:40:02.767Z,6.9
2018-10-21T00:45:02.362Z,6.6
2018-10-21T00:50:02.504Z,6.6
2018-10-21T00:55:03.278Z,6.5
2018-10-21T01:00:03.062Z,6.6
2018-10-21T01:05:02.861Z,6.9
2018-10-21T01:10:02.519Z,6.9
2018-10-21T01:15:03.091Z,6.9
2018-10-21T01:20:03.211Z,6.1
2018-10-21T01:25:02.921Z,6.1
2018-10-21T01:30:02.491Z,6.1
2018-10-21T01:35:03.125Z,6.0
2018-10-21T01:40:02.833Z,6.1
2018-10-21T01:45:02.448Z,6.1
2018-10-21T01:50:02.695Z,6.6
2018-10-21T01:55:02.390Z,6.4
2018-10-21T02:00:03.021Z,6.4
2018-10-21T02:05:02.746Z,6.4
2018-10-21T02:10:02.370Z,6.6
2018-10-21T02:15:03.211Z,6.5
2018-10-21T02:20:02.631Z,6.5
2018-10-21T02:25:03.204Z,6.5
2018-10-21T02:30:02.759Z,6.6
2018-10-21T02:35:02.728Z,6.9
2018-10-21T02:40:02.465Z,7.0
2018-10-21T02:45:03.154Z,7.1
2018-10-21T02:50:03.226Z,7.0
2018-10-21T02:55:02.836Z,7.4
2018-10-21T03:00:03.355Z,7.5
2018-10-21T03:05:03.171Z,7.5
2018-10-21T03:10:02.881Z,7.6
2018-10-21T03:15:02.680Z,7.9
2018-10-21T03:20:02.956Z,7.6
2018-10-21T03:25:02.678Z,7.9
2018-10-21T03:30:03.264Z,7.9
2018-10-21T03:35:02.983Z,8.3
2018-10-21T03:40:02.694Z,8.1
2018-10-21T03:45:02.763Z,8.3
2018-10-21T03:50:02.408Z,8.0
2018-10-21T03:55:03.162Z,8.0
2018-10-21T04:00:02.680Z,8.3
2018-10-21T04:05:02.322Z,8.5
2018-10-21T04:10:03.183Z,8.5
2018-10-21T04:15:02.433Z,8.6
2018-10-21T04:20:03.034Z,8.3
2018-10-21T04:25:02.590Z,8.1
2018-10-21T04:30:03.133Z,8.0
2018-10-21T04:35:03.196Z,8.0
2018-10-21T04:40:02.955Z,8.0
2018-10-21T04:45:03.069Z,7.9
2018-10-21T04:50:02.783Z,8.0
2018-10-21T04:55:02.389Z,8.0
2018-10-21T05:00:03.068Z,8.0
2018-10-21T05:05:02.750Z,8.0
2018-10-21T05:10:02.467Z,8.1
2018-10-21T05:15:02.381Z,8.1
2018-10-21T05:20:02.386Z,8.1
2018-10-21T05:25:03.005Z,8.1
2018-10-21T05:30:02.640Z,8.1
2018-10-21T05:35:02.287Z,8.3
2018-10-21T05:40:02.934Z,8.3
2018-10-21T05:45:03.197Z,8.3
2018-10-21T05:50:02.868Z,8.3
2018-10-21T05:55:02.484Z,8.3
2018-10-21T06:00:03.211Z,8.1
2018-10-21T06:05:02.878Z,8.1
2018-10-21T06:10:02.631Z,8.1
2018-10-21T06:15:02.807Z,8.0
2018-10-21T06:20:02.447Z,7.9
2018-10-21T06:25:03.125Z,7.9
2018-10-21T06:30:02.789Z,7.6
2018-10-21T06:35:02.393Z,7.6
2018-10-21T06:40:03.269Z,7.9
2018-10-21T06:45:02.933Z,7.9
2018-10-21T06:50:03.107Z,7.6
2018-10-21T06:55:02.642Z,7.6
2018-10-21T07:00:02.263Z,7.6
2018-10-21T07:05:02.993Z,7.9
2018-10-21T07:10:02.392Z,8.1
2018-10-21T07:15:02.718Z,8.3
2018-10-21T07:20:02.406Z,8.5
2018-10-21T07:25:03.126Z,8.6
2018-10-21T07:30:02.675Z,8.6
2018-10-21T07:35:03.242Z,8.8
2018-10-21T07:40:02.918Z,9.1
2018-10-21T07:45:02.916Z,9.3
2018-10-21T07:50:02.664Z,9.6
2018-10-21T07:55:02.340Z,9.5
2018-10-21T08:00:03.262Z,9.5
2018-10-21T08:05:03.078Z,9.1
2018-10-21T08:10:02.769Z,9.0
2018-10-21T08:15:02.912Z,9.1
2018-10-21T08:20:03.160Z,9.3
2018-10-21T08:25:02.800Z,9.3
2018-10-21T08:30:02.380Z,9.5
2018-10-21T08:35:03.015Z,9.8
2018-10-21T08:40:02.733Z,10.0
2018-10-21T08:45:02.821Z,10.1
2018-10-21T08:50:02.630Z,10.5
2018-10-21T08:55:03.167Z,10.6
2018-10-21T09:00:03.301Z,10.8
2018-10-21T09:05:02.905Z,11.0
2018-10-21T09:10:02.644Z,11.3
2018-10-21T09:15:03.143Z,11.6
2018-10-21T09:20:03.219Z,11.8
2018-10-21T09:25:02.796Z,11.6
2018-10-21T09:30:02.844Z,12.1
2018-10-21T09:35:02.473Z,13.1
2018-10-21T09:40:03.101Z,13.6
2018-10-21T09:45:03.131Z,14.0
2018-10-21T09:50:02.917Z,14.0
2018-10-21T09:55:03.284Z,13.8
2018-10-21T10:00:02.478Z,14.8
2018-10-21T10:05:03.178Z,14.5
2018-10-21T10:10:03.252Z,15.6
2018-10-21T10:15:02.309Z,15.8
2018-10-21T10:20:02.921Z,15.6
2018-10-21T10:25:02.681Z,15.1
2018-10-21T10:30:08.351Z,15.6
2018-10-21T10:35:02.910Z,15.3
2018-10-21T10:40:02.614Z,15.3
2018-10-21T10:45:02.692Z,16.0
2018-10-21T10:50:02.281Z,15.6
2018-10-21T10:55:02.957Z,15.0
2018-10-21T11:00:02.544Z,15.1
2018-10-21T11:05:03.082Z,15.6
2018-10-21T11:10:02.851Z,16.7
2018-10-21T11:15:03.179Z,16.3
2018-10-21T11:20:02.851Z,15.8
2018-10-21T11:25:02.578Z,15.8
2018-10-21T11:30:02.691Z,16.2
2018-10-21T11:35:02.350Z,15.8
2018-10-21T11:40:03.242Z,15.3
2018-10-21T11:45:03.212Z,15.1
2018-10-21T11:50:02.875Z,15.8
2018-10-21T11:55:02.625Z,15.8
2018-10-21T12:00:02.913Z,16.0
2018-10-21T12:05:02.592Z,16.2
2018-10-21T12:10:02.358Z,15.6
2018-10-21T12:15:02.538Z,17.1
2018-10-21T12:20:03.267Z,17.2
2018-10-21T12:25:02.889Z,17.0
2018-10-21T12:30:03.002Z,17.1
2018-10-21T12:35:02.676Z,17.2
2018-10-21T12:40:02.935Z,18.2
2018-10-21T12:45:02.962Z,17.3
2018-10-21T12:50:02.652Z,17.7
2018-10-21T12:55:02.344Z,17.5
2018-10-21T13:00:02.314Z,16.7
2018-10-21T13:05:02.976Z,17.7
2018-10-21T13:10:02.701Z,17.7
2018-10-21T13:15:02.887Z,19.0
2018-10-21T13:20:02.552Z,17.8
2018-10-21T13:25:03.286Z,17.8
2018-10-21T13:30:02.331Z,17.7
2018-10-21T13:35:03.053Z,17.8
2018-10-21T13:40:02.942Z,17.2
2018-10-21T13:45:03.184Z,17.7
2018-10-21T13:50:02.806Z,17.3
2018-10-21T13:55:02.545Z,17.2
2018-10-21T14:00:02.552Z,17.5
2018-10-21T14:05:03.225Z,18.1
2018-10-21T14:10:03.025Z,17.8
2018-10-21T14:15:02.966Z,18.2
2018-10-21T14:20:02.794Z,17.7
2018-10-21T14:25:02.535Z,17.3
2018-10-21T14:30:02.810Z,17.1
2018-10-21T14:35:02.404Z,17.7
2018-10-21T14:40:03.098Z,18.5
2018-10-21T14:45:02.745Z,17.2
2018-10-21T14:50:02.689Z,16.6
2018-10-21T14:55:02.424Z,16.7
2018-10-21T15:00:02.775Z,16.7
2018-10-21T15:05:03.190Z,16.7
2018-10-21T15:10:02.940Z,16.7
2018-10-21T15:15:02.839Z,16.7
2018-10-21T15:20:02.600Z,16.2
2018-10-21T15:25:02.676Z,16.0
2018-10-21T15:30:02.397Z,15.8
2018-10-21T15:35:02.546Z,16.0
2018-10-21T15:40:03.245Z,16.0
2018-10-21T15:45:03.246Z,15.8
2018-10-21T15:50:02.960Z,15.8
2018-10-21T15:55:03.232Z,15.8
2018-10-21T16:00:02.896Z,15.6
2018-10-21T16:05:02.581Z,15.3
2018-10-21T16:10:02.414Z,15.1
2018-10-21T16:15:02.423Z,15.1
2018-10-21T16:20:03.146Z,15.0
2018-10-21T16:25:03.044Z,14.6
2018-10-21T16:30:02.744Z,14.3
2018-10-21T16:35:02.662Z,14.0
2018-10-21T16:40:02.446Z,14.0
2018-10-21T16:45:03.113Z,13.6
2018-10-21T16:50:03.167Z,13.6
2018-10-21T16:55:02.809Z,13.1
2018-10-21T17:00:02.634Z,13.1
2018-10-21T17:05:02.674Z,12.8
2018-10-21T17:10:03.154Z,12.8
2018-10-21T17:15:03.096Z,12.5
2018-10-21T17:20:02.825Z,12.3
2018-10-21T17:25:02.521Z,12.1
2018-10-21T17:30:02.629Z,12.1
2018-10-21T17:35:02.314Z,12.0
2018-10-21T17:40:03.038Z,11.6
2018-10-21T17:45:03.221Z,11.3
2018-10-21T17:50:02.865Z,11.6
2018-10-21T17:55:02.422Z,11.3
2018-10-21T18:00:02.459Z,11.1
2018-10-21T18:05:02.994Z,10.8
2018-10-21T18:10:02.814Z,10.8
2018-10-21T18:15:02.985Z,10.6
2018-10-21T18:20:02.733Z,10.5
2018-10-21T18:25:03.243Z,10.3
2018-10-21T18:30:02.278Z,10.3
2018-10-21T18:35:02.885Z,10.3
2018-10-21T18:40:02.640Z,10.1
2018-10-21T18:45:02.552Z,10.1
2018-10-21T18:50:03.320Z,10.0
2018-10-21T18:55:03.078Z,10.0
2018-10-21T19:00:03.282Z,10.0
2018-10-21T19:05:02.911Z,9.6
2018-10-21T19:10:02.649Z,9.6
2018-10-21T19:15:02.693Z,9.6
2018-10-21T19:20:02.272Z,9.5
2018-10-21T19:25:03.049Z,9.5
2018-10-21T19:30:03.063Z,9.3
2018-10-21T19:35:02.662Z,9.3
2018-10-21T19:40:02.355Z,9.5
2018-10-21T19:45:02.361Z,9.5
2018-10-21T19:50:03.027Z,9.6
2018-10-21T19:55:02.547Z,9.8
2018-10-21T20:00:03.002Z,10.0
2018-10-21T20:05:02.649Z,10.1
2018-10-21T20:10:02.507Z,10.1
2018-10-21T20:15:02.474Z,10.1
2018-10-21T20:20:03.125Z,10.3
2018-10-21T20:25:02.766Z,10.6
2018-10-21T20:30:02.723Z,10.8
2018-10-21T20:35:02.294Z,10.8
2018-10-21T20:40:03.060Z,10.8
2018-10-21T20:45:03.011Z,11.1
2018-10-21T20:50:02.588Z,11.3
2018-10-21T20:55:03.333Z,11.3
2018-10-21T21:00:02.970Z,11.3
2018-10-21T21:05:03.183Z,11.3
2018-10-21T21:10:02.798Z,11.1
2018-10-21T21:15:03.233Z,11.1
2018-10-21T21:20:03.005Z,11.3
2018-10-21T21:25:02.592Z,11.6
2018-10-21T21:30:03.308Z,11.3
2018-10-21T21:35:02.293Z,11.8
2018-10-21T21:40:03.014Z,11.8
2018-10-21T21:45:03.035Z,11.8
2018-10-21T21:50:02.665Z,11.6
2018-10-21T21:55:03.281Z,11.6
2018-10-21T22:00:02.954Z,11.3
2018-10-21T22:05:03.149Z,11.0
2018-10-21T22:10:02.833Z,11.3
2018-10-21T22:15:02.858Z,11.3
2018-10-21T22:20:02.567Z,11.1
2018-10-21T22:25:03.312Z,11.3
2018-10-21T22:30:02.958Z,11.3
2018-10-21T22:35:03.153Z,11.3
2018-10-21T22:40:02.850Z,11.3
2018-10-21T22:45:02.803Z,11.6
2018-10-21T22:50:02.666Z,11.6
2018-10-21T22:55:03.384Z,11.8
2018-10-21T23:00:02.954Z,11.8
2018-10-21T23:05:02.680Z,12.1
2018-10-21T23:10:02.339Z,12.0
2018-10-21T23:15:02.364Z,12.1
2018-10-21T23:20:03.288Z,11.8
2018-10-21T23:25:02.851Z,11.6
2018-10-21T23:30:02.516Z,11.3
2018-10-21T23:35:02.527Z,11.0
2018-10-21T23:40:03.233Z,11.0
2018-10-21T23:45:03.107Z,11.3
2018-10-21T23:50:02.709Z,11.1
2018-10-21T23:55:02.285Z,11.0
